createdAt,value
2023-02-18T00:01:34.176Z,101027.31
2023-02-18T00:04:05.507Z,101019.20
2023-02-18T00:06:49.446Z,101010.55
2023-02-18T00:09:18.559Z,101005.71
2023-02-18T00:12:01.482Z,101001.20
2023-02-18T00:14:34.128Z,100990.89
2023-02-18T00:17:06.128Z,100989.29
2023-02-18T00:19:35.462Z,100991.64
2023-02-18T00:22:05.951Z,100987.96
2023-02-18T00:24:33.725Z,100981.02
2023-02-18T00:27:54.450Z,100973.21
2023-02-18T00:30:27.174Z,100964.05
2023-02-18T00:32:57.765Z,100951.70
2023-02-18T00:35:37.725Z,100950.99
2023-02-18T00:38:10.178Z,100947.41
2023-02-18T00:40:40.457Z,100944.73
2023-02-18T00:43:10.893Z,100937.45
2023-02-18T00:45:41.566Z,100935.77
2023-02-18T00:48:11.075Z,100937.40
2023-02-18T00:50:44.523Z,100937.82
2023-02-18T00:53:14.523Z,100940.29
2023-02-18T00:55:47.133Z,100938.84
2023-02-18T00:58:35.428Z,100938.14
2023-02-18T01:01:07.757Z,100940.72
2023-02-18T01:03:40.398Z,100937.30
2023-02-18T01:06:09.634Z,100940.06
2023-02-18T01:08:37.638Z,100937.78
2023-02-18T01:11:11.182Z,100935.89
2023-02-18T01:13:38.874Z,100932.95
2023-02-18T01:16:08.515Z,100928.77
2023-02-18T01:18:40.632Z,100926.89
2023-02-18T01:21:09.125Z,100916.96
2023-02-18T01:23:37.840Z,100914.88
2023-02-18T01:26:07.001Z,100910.89
2023-02-18T01:28:35.898Z,100913.91
2023-02-18T01:31:08.245Z,100910.58
2023-02-18T01:33:45.086Z,100897.52
2023-02-18T01:36:12.812Z,100897.20
2023-02-18T01:38:42.084Z,100891.09
2023-02-18T01:41:11.963Z,100891.09
2023-02-18T01:43:41.272Z,100888.80
2023-02-18T01:46:14.299Z,100884.11
2023-02-18T01:48:56.045Z,100878.25
2023-02-18T01:51:31.784Z,100868.99
2023-02-18T01:54:09.877Z,100861.41
2023-02-18T01:57:01.214Z,100860.42
2023-02-18T01:59:39.111Z,100857.20
2023-02-18T02:02:08.448Z,100847.42
2023-02-18T02:04:38.841Z,100842.31
2023-02-18T02:07:07.938Z,100842.52
2023-02-18T02:09:36.684Z,100841.30
2023-02-18T02:12:20.572Z,100839.53
2023-02-18T02:15:35.659Z,100839.53
2023-02-18T02:18:16.801Z,100838.14
2023-02-18T02:21:11.631Z,100837.33
2023-02-18T02:24:15.116Z,100830.02
2023-02-18T02:27:07.990Z,100828.03
2023-02-18T02:29:53.162Z,100827.02
2023-02-18T02:32:56.217Z,100831.66
2023-02-18T02:35:41.103Z,100840.28
2023-02-18T02:38:19.149Z,100839.31
2023-02-18T02:40:56.100Z,100839.69
2023-02-18T02:43:52.001Z,100833.34
2023-02-18T02:46:35.027Z,100825.59
2023-02-18T02:49:21.917Z,100813.94
2023-02-18T02:52:04.858Z,100808.10
2023-02-18T02:54:32.818Z,100792.79
2023-02-18T02:57:36.433Z,100786.41
2023-02-18T03:00:41.798Z,100777.74
2023-02-18T03:03:22.357Z,100773.02
2023-02-18T03:05:57.004Z,100765.61
2023-02-18T03:09:10.361Z,100758.18
2023-02-18T03:12:11.987Z,100751.28
2023-02-18T03:15:11.847Z,100753.73
2023-02-18T03:17:57.907Z,100751.21
2023-02-18T03:20:36.511Z,100764.73
2023-02-18T03:23:12.362Z,100770.95
2023-02-18T03:25:42.871Z,100772.52
2023-02-18T03:28:17.652Z,100759.75
2023-02-18T03:30:51.423Z,100740.23
2023-02-18T03:33:41.976Z,100730.87
2023-02-18T03:36:12.706Z,100737.90
2023-02-18T03:38:57.114Z,100734.33
2023-02-18T03:41:26.666Z,100733.20
2023-02-18T03:47:03.994Z,100730.30
2023-02-18T03:49:32.749Z,100724.79
2023-02-18T03:52:10.153Z,100724.77
2023-02-18T03:54:39.374Z,100721.52
2023-02-18T03:57:11.339Z,100712.76
2023-02-18T03:59:42.310Z,100696.73
2023-02-18T04:02:12.851Z,100689.45
2023-02-18T04:04:41.854Z,100682.04
2023-02-18T04:07:12.671Z,100674.75
2023-02-18T04:09:41.915Z,100666.27
2023-02-18T04:12:11.648Z,100663.84
2023-02-18T04:14:51.896Z,100661.90
2023-02-18T04:17:25.314Z,100664.71
2023-02-18T04:19:54.778Z,100662.14
2023-02-18T04:22:23.382Z,100654.90
2023-02-18T04:24:52.931Z,100642.09
2023-02-18T04:27:21.434Z,100651.90
2023-02-18T04:29:50.856Z,100651.05
2023-02-18T04:32:20.752Z,100656.93
2023-02-18T04:34:50.257Z,100661.74
2023-02-18T04:37:20.928Z,100661.05
2023-02-18T04:39:51.157Z,100659.29
2023-02-18T04:46:30.549Z,100640.02
2023-02-18T04:49:01.979Z,100627.54
2023-02-18T04:51:32.174Z,100624.59
2023-02-18T04:54:11.843Z,100620.67
2023-02-18T04:56:43.181Z,100623.34
2023-02-18T04:59:16.581Z,100615.73
2023-02-18T05:01:48.890Z,100613.98
2023-02-18T05:04:32.485Z,100611.23
2023-02-18T05:07:03.779Z,100610.51
2023-02-18T05:09:48.718Z,100602.70
2023-02-18T05:12:18.457Z,100591.82
2023-02-18T05:14:59.538Z,100581.63
2023-02-18T05:17:52.674Z,100577.40
2023-02-18T05:20:22.926Z,100579.79
2023-02-18T05:25:56.766Z,100567.31
2023-02-18T05:28:25.632Z,100560.39
2023-02-18T05:31:04.263Z,100557.94
2023-02-18T05:33:42.141Z,100562.08
2023-02-18T05:36:14.291Z,100563.95
2023-02-18T09:21:51.368Z,100002.77
2023-02-18T11:28:59.892Z,99733.80
2023-02-18T11:31:59.255Z,99734.98
2023-02-18T22:01:49.868Z,99839.48
2023-02-18T22:04:44.177Z,99834.95
2023-02-18T22:07:51.750Z,99840.09
2023-02-18T22:10:51.477Z,99839.81
2023-02-18T22:27:21.256Z,99834.76
2023-02-18T22:30:16.350Z,99834.01
2023-02-18T22:32:54.637Z,99836.75
2023-02-18T22:35:49.635Z,99835.48
2023-02-18T22:54:13.941Z,99840.59
2023-02-18T23:17:13.665Z,99840.52
2023-02-18T23:23:12.213Z,99845.61
2023-02-18T23:28:56.174Z,99846.94
2023-02-18T23:43:02.702Z,99857.18
2023-02-18T23:45:47.714Z,99857.23
2023-02-18T23:49:18.796Z,99859.50
2023-02-18T23:52:00.525Z,99865.83
2023-02-18T23:54:36.988Z,99866.12
2023-02-18T23:57:06.376Z,99863.48
2023-02-18T23:59:37.313Z,99865.37
